sensor_id;sensor_type;location;lat;lon;timestamp;pressure;altitude;pressure_sealevel;temperature;humidity
2681;BME280;1350;42.134;24.708;2022-10-22T00:00:39;100411.69;;;8.76;100.00
2681;BME280;1350;42.134;24.708;2022-10-22T00:03:06;100404.78;;;8.72;100.00
2681;BME280;1350;42.134;24.708;2022-10-22T00:05:33;100401.13;;;8.76;100.00
2681;BME280;1350;42.134;24.708;2022-10-22T00:07:59;100395.50;;;8.86;100.00
2681;BME280;1350;42.134;24.708;2022-10-22T00:10:26;100395.69;;;8.52;100.00
2681;BME280;1350;42.134;24.708;2022-10-22T00:12:54;100397.81;;;8.69;100.00
2681;BME280;1350;42.134;24.708;2022-10-22T00:15:21;100385.06;;;8.82;100.00
2681;BME280;1350;42.134;24.708;2022-10-22T00:17:48;100389.31;;;8.87;100.00
2681;BME280;1350;42.134;24.708;2022-10-22T00:20:15;100385.13;;;8.80;100.00
2681;BME280;1350;42.134;24.708;2022-10-22T00:22:42;100378.63;;;8.90;100.00
2681;BME280;1350;42.134;24.708;2022-10-22T00:25:08;100372.88;;;8.78;100.00
2681;BME280;1350;42.134;24.708;2022-10-22T00:27:35;100370.22;;;8.78;100.00
2681;BME280;1350;42.134;24.708;2022-10-22T00:30:04;100366.44;;;8.85;100.00
2681;BME280;1350;42.134;24.708;2022-10-22T00:32:31;100374.09;;;8.94;100.00
2681;BME280;1350;42.134;24.708;2022-10-22T00:34:58;100368.16;;;8.59;100.00
2681;BME280;1350;42.134;24.708;2022-10-22T00:37:24;100370.69;;;8.64;100.00
2681;BME280;1350;42.134;24.708;2022-10-22T00:39:51;100373.34;;;8.63;100.00
2681;BME280;1350;42.134;24.708;2022-10-22T00:42:20;100366.13;;;8.68;100.00
2681;BME280;1350;42.134;24.708;2022-10-22T00:45:00;100356.72;;;8.59;100.00
2681;BME280;1350;42.134;24.708;2022-10-22T00:47:33;100362.34;;;8.76;100.00
2681;BME280;1350;42.134;24.708;2022-10-22T00:50:03;100359.97;;;8.39;100.00
2681;BME280;1350;42.134;24.708;2022-10-22T00:52:31;100357.91;;;8.49;100.00
2681;BME280;1350;42.134;24.708;2022-10-22T00:54:59;100355.75;;;8.62;100.00
2681;BME280;1350;42.134;24.708;2022-10-22T00:57:26;100351.44;;;8.59;100.00
2681;BME280;1350;42.134;24.708;2022-10-22T00:59:55;100360.09;;;8.64;100.00
2681;BME280;1350;42.134;24.708;2022-10-22T01:02:22;100358.09;;;8.71;100.00
2681;BME280;1350;42.134;24.708;2022-10-22T01:04:51;100353.16;;;8.60;100.00
2681;BME280;1350;42.134;24.708;2022-10-22T01:07:20;100355.47;;;8.71;100.00
2681;BME280;1350;42.134;24.708;2022-10-22T01:09:57;100354.53;;;8.73;100.00
2681;BME280;1350;42.134;24.708;2022-10-22T01:12:33;100357.34;;;8.67;100.00
2681;BME280;1350;42.134;24.708;2022-10-22T01:15:11;100347.47;;;8.72;100.00
2681;BME280;1350;42.134;24.708;2022-10-22T01:17:47;100354.84;;;8.63;100.00
2681;BME280;1350;42.134;24.708;2022-10-22T01:20:40;100354.66;;;8.69;100.00
2681;BME280;1350;42.134;24.708;2022-10-22T01:23:23;100348.41;;;8.71;100.00
2681;BME280;1350;42.134;24.708;2022-10-22T01:26:02;100351.09;;;8.70;100.00
2681;BME280;1350;42.134;24.708;2022-10-22T01:28:51;100337.31;;;8.60;100.00
2681;BME280;1350;42.134;24.708;2022-10-22T01:31:22;100348.66;;;8.64;100.00
2681;BME280;1350;42.134;24.708;2022-10-22T01:33:52;100343.44;;;8.34;100.00
2681;BME280;1350;42.134;24.708;2022-10-22T01:36:20;100346.34;;;8.25;100.00
2681;BME280;1350;42.134;24.708;2022-10-22T01:38:48;100348.41;;;8.43;100.00
2681;BME280;1350;42.134;24.708;2022-10-22T01:41:17;100350.19;;;8.43;100.00
2681;BME280;1350;42.134;24.708;2022-10-22T01:43:45;100346.56;;;8.47;100.00
2681;BME280;1350;42.134;24.708;2022-10-22T01:46:12;100345.44;;;8.26;100.00
2681;BME280;1350;42.134;24.708;2022-10-22T01:48:53;100340.50;;;8.43;100.00
2681;BME280;1350;42.134;24.708;2022-10-22T01:51:43;100352.78;;;8.44;100.00
2681;BME280;1350;42.134;24.708;2022-10-22T01:54:19;100353.38;;;8.54;100.00
2681;BME280;1350;42.134;24.708;2022-10-22T01:56:55;100342.59;;;8.32;100.00
2681;BME280;1350;42.134;24.708;2022-10-22T01:59:33;100347.72;;;8.08;100.00
2681;BME280;1350;42.134;24.708;2022-10-22T02:02:08;100342.22;;;8.15;100.00
2681;BME280;1350;42.134;24.708;2022-10-22T02:04:41;100343.88;;;8.19;100.00
2681;BME280;1350;42.134;24.708;2022-10-22T02:07:11;100337.25;;;8.05;100.00
2681;BME280;1350;42.134;24.708;2022-10-22T02:09:40;100338.56;;;7.90;100.00
2681;BME280;1350;42.134;24.708;2022-10-22T02:12:09;100343.38;;;7.78;100.00
2681;BME280;1350;42.134;24.708;2022-10-22T02:14:40;100348.75;;;7.75;100.00
2681;BME280;1350;42.134;24.708;2022-10-22T02:17:10;100341.03;;;7.66;100.00
2681;BME280;1350;42.134;24.708;2022-10-22T02:19:43;100345.91;;;7.50;100.00
2681;BME280;1350;42.134;24.708;2022-10-22T02:22:13;100351.38;;;7.43;100.00
2681;BME280;1350;42.134;24.708;2022-10-22T02:24:40;100359.59;;;7.32;100.00
2681;BME280;1350;42.134;24.708;2022-10-22T02:27:10;100354.69;;;7.19;100.00
2681;BME280;1350;42.134;24.708;2022-10-22T02:29:45;100355.50;;;7.21;100.00
2681;BME280;1350;42.134;24.708;2022-10-22T02:32:18;100350.25;;;7.21;100.00
2681;BME280;1350;42.134;24.708;2022-10-22T02:34:47;100349.16;;;7.28;100.00
2681;BME280;1350;42.134;24.708;2022-10-22T02:37:17;100347.31;;;7.31;100.00
2681;BME280;1350;42.134;24.708;2022-10-22T02:39:44;100348.44;;;7.55;100.00
2681;BME280;1350;42.134;24.708;2022-10-22T02:42:11;100344.69;;;7.62;100.00
2681;BME280;1350;42.134;24.708;2022-10-22T02:44:38;100344.75;;;7.60;100.00
2681;BME280;1350;42.134;24.708;2022-10-22T02:47:06;100348.75;;;7.75;100.00
2681;BME280;1350;42.134;24.708;2022-10-22T02:49:33;100344.00;;;7.55;100.00
2681;BME280;1350;42.134;24.708;2022-10-22T02:52:00;100339.97;;;7.42;100.00
2681;BME280;1350;42.134;24.708;2022-10-22T02:54:27;100348.31;;;7.59;100.00
2681;BME280;1350;42.134;24.708;2022-10-22T02:56:54;100347.38;;;7.60;100.00
2681;BME280;1350;42.134;24.708;2022-10-22T02:59:20;100340.28;;;7.62;100.00
2681;BME280;1350;42.134;24.708;2022-10-22T03:01:47;100345.66;;;7.59;100.00
2681;BME280;1350;42.134;24.708;2022-10-22T03:04:15;100341.28;;;7.58;100.00
2681;BME280;1350;42.134;24.708;2022-10-22T03:06:42;100355.78;;;7.74;100.00
2681;BME280;1350;42.134;24.708;2022-10-22T03:09:09;100355.59;;;7.80;100.00
2681;BME280;1350;42.134;24.708;2022-10-22T03:11:36;100345.97;;;7.79;100.00
2681;BME280;1350;42.134;24.708;2022-10-22T03:14:03;100356.66;;;7.75;100.00
2681;BME280;1350;42.134;24.708;2022-10-22T03:16:30;100353.97;;;7.76;100.00
2681;BME280;1350;42.134;24.708;2022-10-22T03:18:56;100352.44;;;7.68;100.00
2681;BME280;1350;42.134;24.708;2022-10-22T03:21:29;100343.59;;;7.70;100.00
2681;BME280;1350;42.134;24.708;2022-10-22T03:23:57;100343.69;;;7.66;100.00
2681;BME280;1350;42.134;24.708;2022-10-22T03:26:25;100337.31;;;7.74;100.00
2681;BME280;1350;42.134;24.708;2022-10-22T03:28:52;100330.75;;;7.87;100.00
2681;BME280;1350;42.134;24.708;2022-10-22T03:31:19;100336.25;;;7.80;100.00
2681;BME280;1350;42.134;24.708;2022-10-22T03:33:46;100334.44;;;7.82;100.00
2681;BME280;1350;42.134;24.708;2022-10-22T03:36:13;100328.88;;;7.91;100.00
2681;BME280;1350;42.134;24.708;2022-10-22T03:38:41;100332.69;;;7.82;100.00
2681;BME280;1350;42.134;24.708;2022-10-22T03:41:08;100328.97;;;7.88;100.00
2681;BME280;1350;42.134;24.708;2022-10-22T03:43:36;100324.81;;;7.81;100.00
2681;BME280;1350;42.134;24.708;2022-10-22T03:46:05;100326.66;;;7.77;100.00
2681;BME280;1350;42.134;24.708;2022-10-22T03:48:32;100339.09;;;7.72;100.00
2681;BME280;1350;42.134;24.708;2022-10-22T03:50:59;100332.72;;;7.81;100.00
2681;BME280;1350;42.134;24.708;2022-10-22T03:53:25;100328.47;;;7.75;100.00
2681;BME280;1350;42.134;24.708;2022-10-22T03:55:54;100331.22;;;7.71;100.00
2681;BME280;1350;42.134;24.708;2022-10-22T03:58:20;100331.16;;;7.74;100.00
2681;BME280;1350;42.134;24.708;2022-10-22T04:00:47;100345.19;;;7.76;100.00
2681;BME280;1350;42.134;24.708;2022-10-22T04:03:14;100344.56;;;7.66;100.00
2681;BME280;1350;42.134;24.708;2022-10-22T04:05:41;100344.47;;;7.69;100.00
2681;BME280;1350;42.134;24.708;2022-10-22T04:08:07;100343.72;;;7.64;100.00
2681;BME280;1350;42.134;24.708;2022-10-22T04:10:34;100348.97;;;7.66;100.00
2681;BME280;1350;42.134;24.708;2022-10-22T04:13:02;100347.19;;;7.66;100.00
2681;BME280;1350;42.134;24.708;2022-10-22T04:15:29;100352.66;;;7.60;100.00
2681;BME280;1350;42.134;24.708;2022-10-22T04:17:56;100353.63;;;7.58;100.00
2681;BME280;1350;42.134;24.708;2022-10-22T04:20:23;100353.91;;;7.47;100.00
2681;BME280;1350;42.134;24.708;2022-10-22T04:22:50;100359.09;;;7.18;100.00
2681;BME280;1350;42.134;24.708;2022-10-22T04:25:17;100356.53;;;6.81;100.00
2681;BME280;1350;42.134;24.708;2022-10-22T04:27:43;100356.03;;;6.66;100.00
2681;BME280;1350;42.134;24.708;2022-10-22T04:30:12;100364.44;;;6.45;100.00
2681;BME280;1350;42.134;24.708;2022-10-22T04:32:39;100362.28;;;6.62;100.00
2681;BME280;1350;42.134;24.708;2022-10-22T04:35:07;100364.47;;;6.43;100.00
2681;BME280;1350;42.134;24.708;2022-10-22T04:37:33;100364.50;;;6.42;100.00
2681;BME280;1350;42.134;24.708;2022-10-22T04:40:00;100360.63;;;6.20;100.00
2681;BME280;1350;42.134;24.708;2022-10-22T04:42:27;100369.41;;;6.20;100.00
2681;BME280;1350;42.134;24.708;2022-10-22T04:44:54;100363.44;;;6.12;100.00
2681;BME280;1350;42.134;24.708;2022-10-22T04:47:22;100357.47;;;6.04;100.00
2681;BME280;1350;42.134;24.708;2022-10-22T04:49:49;100365.69;;;6.29;100.00
2681;BME280;1350;42.134;24.708;2022-10-22T04:52:15;100357.28;;;6.51;100.00
2681;BME280;1350;42.134;24.708;2022-10-22T04:54:42;100343.31;;;6.83;100.00
2681;BME280;1350;42.134;24.708;2022-10-22T04:57:09;100338.50;;;6.99;100.00
2681;BME280;1350;42.134;24.708;2022-10-22T04:59:36;100339.97;;;7.10;100.00
2681;BME280;1350;42.134;24.708;2022-10-22T05:02:03;100333.28;;;6.97;100.00
2681;BME280;1350;42.134;24.708;2022-10-22T05:04:31;100332.31;;;7.01;100.00
2681;BME280;1350;42.134;24.708;2022-10-22T05:06:58;100336.25;;;7.17;100.00
2681;BME280;1350;42.134;24.708;2022-10-22T05:09:24;100320.72;;;7.69;100.00
2681;BME280;1350;42.134;24.708;2022-10-22T05:11:51;100321.06;;;8.44;100.00
2681;BME280;1350;42.134;24.708;2022-10-22T05:14:19;100322.75;;;9.25;100.00
2681;BME280;1350;42.134;24.708;2022-10-22T05:16:47;100314.84;;;10.19;100.00
2681;BME280;1350;42.134;24.708;2022-10-22T05:19:16;100311.06;;;10.89;100.00
2681;BME280;1350;42.134;24.708;2022-10-22T05:21:45;100318.53;;;10.80;100.00
2681;BME280;1350;42.134;24.708;2022-10-22T05:24:12;100322.38;;;10.73;99.62
2681;BME280;1350;42.134;24.708;2022-10-22T05:26:39;100328.34;;;10.78;100.00
2681;BME280;1350;42.134;24.708;2022-10-22T05:29:06;100330.31;;;10.73;100.00
2681;BME280;1350;42.134;24.708;2022-10-22T05:31:33;100332.53;;;10.83;99.77
2681;BME280;1350;42.134;24.708;2022-10-22T05:34:00;100335.59;;;10.94;99.53
2681;BME280;1350;42.134;24.708;2022-10-22T05:36:27;100331.28;;;10.92;100.00
2681;BME280;1350;42.134;24.708;2022-10-22T05:38:56;100330.59;;;11.28;99.47
2681;BME280;1350;42.134;24.708;2022-10-22T05:41:24;100331.16;;;11.55;97.20
2681;BME280;1350;42.134;24.708;2022-10-22T05:43:53;100330.28;;;11.95;94.76
2681;BME280;1350;42.134;24.708;2022-10-22T05:46:22;100331.16;;;12.32;91.57
2681;BME280;1350;42.134;24.708;2022-10-22T05:48:49;100325.41;;;12.77;89.14
2681;BME280;1350;42.134;24.708;2022-10-22T05:51:16;100320.31;;;13.25;86.21
2681;BME280;1350;42.134;24.708;2022-10-22T05:53:44;100312.03;;;13.81;82.24
2681;BME280;1350;42.134;24.708;2022-10-22T05:56:14;100322.94;;;14.24;78.21
2681;BME280;1350;42.134;24.708;2022-10-22T05:58:41;100314.94;;;14.71;74.39
2681;BME280;1350;42.134;24.708;2022-10-22T06:01:12;100321.03;;;15.18;69.94
2681;BME280;1350;42.134;24.708;2022-10-22T06:03:39;100312.78;;;15.66;67.86
2681;BME280;1350;42.134;24.708;2022-10-22T06:06:16;100314.03;;;16.03;65.54
2681;BME280;1350;42.134;24.708;2022-10-22T06:08:44;100318.28;;;16.33;63.26
2681;BME280;1350;42.134;24.708;2022-10-22T06:11:12;100314.41;;;16.65;61.81
2681;BME280;1350;42.134;24.708;2022-10-22T06:13:39;100310.38;;;16.99;60.59
2681;BME280;1350;42.134;24.708;2022-10-22T06:16:06;100312.84;;;17.02;58.94
2681;BME280;1350;42.134;24.708;2022-10-22T06:18:33;100306.91;;;17.24;58.71
2681;BME280;1350;42.134;24.708;2022-10-22T06:21:04;100314.53;;;17.42;58.72
2681;BME280;1350;42.134;24.708;2022-10-22T06:23:31;100311.38;;;17.75;57.83
2681;BME280;1350;42.134;24.708;2022-10-22T06:25:58;100313.09;;;18.01;57.52
2681;BME280;1350;42.134;24.708;2022-10-22T06:28:26;100312.50;;;18.33;55.71
2681;BME280;1350;42.134;24.708;2022-10-22T06:30:53;100313.72;;;18.29;55.45
2681;BME280;1350;42.134;24.708;2022-10-22T06:33:22;100319.19;;;18.28;54.94
2681;BME280;1350;42.134;24.708;2022-10-22T06:35:49;100315.66;;;18.40;54.17
2681;BME280;1350;42.134;24.708;2022-10-22T06:38:16;100312.53;;;18.08;55.04
2681;BME280;1350;42.134;24.708;2022-10-22T06:40:42;100326.41;;;18.15;55.71
2681;BME280;1350;42.134;24.708;2022-10-22T06:43:09;100331.34;;;18.93;53.74
2681;BME280;1350;42.134;24.708;2022-10-22T06:45:37;100323.19;;;19.42;52.49
2681;BME280;1350;42.134;24.708;2022-10-22T06:48:05;100324.47;;;19.82;51.09
2681;BME280;1350;42.134;24.708;2022-10-22T06:50:33;100329.66;;;20.07;50.42
2681;BME280;1350;42.134;24.708;2022-10-22T06:52:59;100334.31;;;19.94;49.70
2681;BME280;1350;42.134;24.708;2022-10-22T06:55:26;100338.34;;;19.99;49.74
2681;BME280;1350;42.134;24.708;2022-10-22T06:57:54;100340.72;;;19.58;50.13
2681;BME280;1350;42.134;24.708;2022-10-22T07:00:21;100359.34;;;19.38;52.37
2681;BME280;1350;42.134;24.708;2022-10-22T07:02:50;100355.78;;;19.72;51.07
2681;BME280;1350;42.134;24.708;2022-10-22T07:05:18;100357.59;;;20.28;49.40
2681;BME280;1350;42.134;24.708;2022-10-22T07:07:45;100357.22;;;20.44;48.56
2681;BME280;1350;42.134;24.708;2022-10-22T07:10:12;100359.03;;;20.10;48.87
2681;BME280;1350;42.134;24.708;2022-10-22T07:12:39;100355.22;;;20.01;49.19
2681;BME280;1350;42.134;24.708;2022-10-22T07:15:06;100357.59;;;20.50;48.13
2681;BME280;1350;42.134;24.708;2022-10-22T07:17:33;100348.63;;;20.50;47.69
2681;BME280;1350;42.134;24.708;2022-10-22T07:20:01;100348.06;;;20.57;47.43
2681;BME280;1350;42.134;24.708;2022-10-22T07:22:28;100342.28;;;20.51;47.04
2681;BME280;1350;42.134;24.708;2022-10-22T07:24:55;100344.59;;;20.00;48.18
2681;BME280;1350;42.134;24.708;2022-10-22T07:27:22;100343.16;;;20.29;48.44
2681;BME280;1350;42.134;24.708;2022-10-22T07:29:49;100338.72;;;20.61;47.51
2681;BME280;1350;42.134;24.708;2022-10-22T07:32:15;100335.38;;;21.02;47.19
2681;BME280;1350;42.134;24.708;2022-10-22T07:34:42;100325.56;;;21.32;46.15
2681;BME280;1350;42.134;24.708;2022-10-22T07:37:10;100329.50;;;21.69;45.63
2681;BME280;1350;42.134;24.708;2022-10-22T07:39:37;100333.50;;;21.86;45.23
2681;BME280;1350;42.134;24.708;2022-10-22T07:42:04;100341.56;;;22.07;44.77
2681;BME280;1350;42.134;24.708;2022-10-22T07:44:31;100340.97;;;22.33;44.60
2681;BME280;1350;42.134;24.708;2022-10-22T07:46:58;100337.31;;;22.83;43.95
2681;BME280;1350;42.134;24.708;2022-10-22T07:49:25;100336.63;;;22.81;43.37
2681;BME280;1350;42.134;24.708;2022-10-22T07:51:51;100340.34;;;22.99;43.10
2681;BME280;1350;42.134;24.708;2022-10-22T07:54:19;100332.28;;;23.47;42.54
2681;BME280;1350;42.134;24.708;2022-10-22T07:56:46;100326.38;;;23.99;41.73
2681;BME280;1350;42.134;24.708;2022-10-22T07:59:13;100330.38;;;24.41;40.14
2681;BME280;1350;42.134;24.708;2022-10-22T08:01:40;100333.13;;;24.32;39.59
2681;BME280;1350;42.134;24.708;2022-10-22T08:04:07;100330.47;;;24.49;39.65
2681;BME280;1350;42.134;24.708;2022-10-22T08:06:35;100325.84;;;24.69;39.39
2681;BME280;1350;42.134;24.708;2022-10-22T08:09:03;100321.75;;;24.82;38.40
2681;BME280;1350;42.134;24.708;2022-10-22T08:11:38;100327.41;;;24.35;39.81
2681;BME280;1350;42.134;24.708;2022-10-22T08:14:05;100323.19;;;24.50;39.90
2681;BME280;1350;42.134;24.708;2022-10-22T08:16:32;100322.94;;;24.98;39.05
2681;BME280;1350;42.134;24.708;2022-10-22T08:18:58;100320.19;;;25.42;38.55
2681;BME280;1350;42.134;24.708;2022-10-22T08:21:25;100318.31;;;25.08;38.30
2681;BME280;1350;42.134;24.708;2022-10-22T08:23:52;100321.47;;;24.85;38.97
2681;BME280;1350;42.134;24.708;2022-10-22T08:26:19;100313.94;;;24.97;38.67
2681;BME280;1350;42.134;24.708;2022-10-22T08:28:47;100316.91;;;25.21;37.85
2681;BME280;1350;42.134;24.708;2022-10-22T08:31:14;100318.00;;;25.28;38.03
2681;BME280;1350;42.134;24.708;2022-10-22T08:33:41;100319.47;;;25.23;38.46
2681;BME280;1350;42.134;24.708;2022-10-22T08:36:08;100318.63;;;25.57;37.87
2681;BME280;1350;42.134;24.708;2022-10-22T08:38:35;100310.06;;;25.70;37.19
2681;BME280;1350;42.134;24.708;2022-10-22T08:41:08;100314.44;;;26.06;36.83
2681;BME280;1350;42.134;24.708;2022-10-22T08:43:49;100315.72;;;26.19;36.18
2681;BME280;1350;42.134;24.708;2022-10-22T08:46:29;100310.00;;;26.05;36.29
2681;BME280;1350;42.134;24.708;2022-10-22T08:49:00;100307.50;;;26.11;36.33
2681;BME280;1350;42.134;24.708;2022-10-22T08:51:32;100293.88;;;26.45;35.80
2681;BME280;1350;42.134;24.708;2022-10-22T08:54:11;100294.16;;;26.34;35.86
2681;BME280;1350;42.134;24.708;2022-10-22T08:56:43;100286.06;;;26.42;35.95
2681;BME280;1350;42.134;24.708;2022-10-22T08:59:15;100285.84;;;26.35;35.50
2681;BME280;1350;42.134;24.708;2022-10-22T09:01:46;100287.13;;;26.15;35.05
2681;BME280;1350;42.134;24.708;2022-10-22T09:04:18;100283.50;;;25.81;35.73
2681;BME280;1350;42.134;24.708;2022-10-22T09:06:50;100274.63;;;25.54;36.41
2681;BME280;1350;42.134;24.708;2022-10-22T09:09:19;100275.34;;;25.38;36.26
2681;BME280;1350;42.134;24.708;2022-10-22T09:11:47;100275.19;;;25.05;36.84
2681;BME280;1350;42.134;24.708;2022-10-22T09:14:18;100267.81;;;25.32;36.92
2681;BME280;1350;42.134;24.708;2022-10-22T09:17:04;100267.41;;;25.27;36.70
2681;BME280;1350;42.134;24.708;2022-10-22T09:19:43;100272.84;;;24.92;36.56
2681;BME280;1350;42.134;24.708;2022-10-22T09:22:21;100259.81;;;24.24;37.95
2681;BME280;1350;42.134;24.708;2022-10-22T09:24:57;100262.22;;;24.27;38.31
2681;BME280;1350;42.134;24.708;2022-10-22T09:27:27;100256.25;;;24.77;37.61
2681;BME280;1350;42.134;24.708;2022-10-22T09:29:56;100245.72;;;25.45;36.75
2681;BME280;1350;42.134;24.708;2022-10-22T09:32:23;100258.28;;;24.93;37.01
2681;BME280;1350;42.134;24.708;2022-10-22T09:34:54;100263.63;;;25.03;37.23
2681;BME280;1350;42.134;24.708;2022-10-22T09:37:25;100257.56;;;25.09;37.46
2681;BME280;1350;42.134;24.708;2022-10-22T09:39:53;100250.94;;;24.31;38.10
2681;BME280;1350;42.134;24.708;2022-10-22T09:42:21;100238.56;;;23.37;39.56
2681;BME280;1350;42.134;24.708;2022-10-22T09:44:51;100231.00;;;22.83;40.42
2681;BME280;1350;42.134;24.708;2022-10-22T09:47:31;100226.31;;;22.75;40.98
2681;BME280;1350;42.134;24.708;2022-10-22T09:50:17;100216.47;;;23.03;40.24
2681;BME280;1350;42.134;24.708;2022-10-22T09:52:45;100214.91;;;23.39;40.04
2681;BME280;1350;42.134;24.708;2022-10-22T09:55:20;100208.63;;;22.71;40.89
2681;BME280;1350;42.134;24.708;2022-10-22T09:57:52;100206.47;;;21.46;42.50
2681;BME280;1350;42.134;24.708;2022-10-22T10:00:19;100206.22;;;21.49;42.81
2681;BME280;1350;42.134;24.708;2022-10-22T10:02:52;100193.25;;;22.04;42.83
2681;BME280;1350;42.134;24.708;2022-10-22T10:05:24;100189.56;;;22.82;41.39
2681;BME280;1350;42.134;24.708;2022-10-22T10:07:51;100190.88;;;22.88;41.04
2681;BME280;1350;42.134;24.708;2022-10-22T10:10:23;100191.47;;;23.57;39.91
2681;BME280;1350;42.134;24.708;2022-10-22T10:12:56;100182.13;;;23.78;39.56
2681;BME280;1350;42.134;24.708;2022-10-22T10:15:30;100184.09;;;24.57;39.09
2681;BME280;1350;42.134;24.708;2022-10-22T10:18:10;100184.81;;;24.15;39.43
2681;BME280;1350;42.134;24.708;2022-10-22T10:20:46;100187.50;;;24.24;39.15
2681;BME280;1350;42.134;24.708;2022-10-22T10:23:21;100180.44;;;22.55;41.06
2681;BME280;1350;42.134;24.708;2022-10-22T10:25:56;100158.97;;;22.72;41.33
2681;BME280;1350;42.134;24.708;2022-10-22T10:28:38;100162.78;;;24.00;39.80
2681;BME280;1350;42.134;24.708;2022-10-22T10:31:15;100164.25;;;24.39;38.61
2681;BME280;1350;42.134;24.708;2022-10-22T10:33:52;100157.19;;;23.19;40.38
2681;BME280;1350;42.134;24.708;2022-10-22T10:36:27;100150.81;;;23.01;40.67
2681;BME280;1350;42.134;24.708;2022-10-22T10:38:58;100150.66;;;23.21;39.97
2681;BME280;1350;42.134;24.708;2022-10-22T10:41:35;100140.06;;;23.47;39.68
2681;BME280;1350;42.134;24.708;2022-10-22T10:44:30;100136.63;;;23.82;40.04
2681;BME280;1350;42.134;24.708;2022-10-22T10:47:10;100133.81;;;24.45;38.88
2681;BME280;1350;42.134;24.708;2022-10-22T10:49:42;100122.34;;;24.86;38.65
2681;BME280;1350;42.134;24.708;2022-10-22T10:52:15;100109.94;;;25.27;38.17
2681;BME280;1350;42.134;24.708;2022-10-22T10:54:46;100109.41;;;24.63;38.67
2681;BME280;1350;42.134;24.708;2022-10-22T10:57:25;100112.34;;;24.17;38.67
2681;BME280;1350;42.134;24.708;2022-10-22T11:00:04;100103.69;;;23.86;39.36
2681;BME280;1350;42.134;24.708;2022-10-22T11:03:12;100094.00;;;24.46;38.96
2681;BME280;1350;42.134;24.708;2022-10-22T11:05:47;100090.97;;;24.84;38.06
2681;BME280;1350;42.134;24.708;2022-10-22T11:08:20;100092.06;;;24.38;38.34
2681;BME280;1350;42.134;24.708;2022-10-22T11:10:51;100085.78;;;24.20;38.71
2681;BME280;1350;42.134;24.708;2022-10-22T11:13:26;100075.38;;;23.71;39.31
2681;BME280;1350;42.134;24.708;2022-10-22T11:15:59;100074.59;;;23.79;38.75
2681;BME280;1350;42.134;24.708;2022-10-22T11:18:31;100067.03;;;23.65;39.31
2681;BME280;1350;42.134;24.708;2022-10-22T11:21:09;100057.81;;;24.55;38.25
2681;BME280;1350;42.134;24.708;2022-10-22T11:23:44;100056.75;;;25.17;37.59
2681;BME280;1350;42.134;24.708;2022-10-22T11:26:24;100058.78;;;24.89;36.96
2681;BME280;1350;42.134;24.708;2022-10-22T11:28:53;100053.00;;;24.49;37.33
2681;BME280;1350;42.134;24.708;2022-10-22T11:31:25;100043.63;;;24.78;37.95
2681;BME280;1350;42.134;24.708;2022-10-22T11:33:56;100052.16;;;24.13;38.25
2681;BME280;1350;42.134;24.708;2022-10-22T11:36:26;100041.38;;;24.39;37.72
2681;BME280;1350;42.134;24.708;2022-10-22T11:38:53;100042.16;;;24.66;37.40
2681;BME280;1350;42.134;24.708;2022-10-22T11:41:24;100034.44;;;24.36;37.46
2681;BME280;1350;42.134;24.708;2022-10-22T11:43:57;100035.41;;;24.96;37.30
2681;BME280;1350;42.134;24.708;2022-10-22T11:46:33;100025.38;;;24.28;37.51
2681;BME280;1350;42.134;24.708;2022-10-22T11:49:04;100028.16;;;24.18;37.88
2681;BME280;1350;42.134;24.708;2022-10-22T11:51:34;100020.13;;;24.09;38.66
2681;BME280;1350;42.134;24.708;2022-10-22T11:54:25;100011.38;;;24.75;37.58
2681;BME280;1350;42.134;24.708;2022-10-22T11:56:57;100012.38;;;24.14;38.02
2681;BME280;1350;42.134;24.708;2022-10-22T11:59:40;100016.34;;;24.45;38.12
2681;BME280;1350;42.134;24.708;2022-10-22T12:02:38;100005.97;;;24.58;37.57
2681;BME280;1350;42.134;24.708;2022-10-22T12:08:22;100004.47;;;24.81;37.98
2681;BME280;1350;42.134;24.708;2022-10-22T12:11:02;99998.28;;;24.10;37.78
2681;BME280;1350;42.134;24.708;2022-10-22T12:13:32;99986.16;;;23.87;38.17
2681;BME280;1350;42.134;24.708;2022-10-22T12:16:13;99987.25;;;23.94;37.97
2681;BME280;1350;42.134;24.708;2022-10-22T12:18:41;99980.25;;;23.74;39.08
2681;BME280;1350;42.134;24.708;2022-10-22T12:21:11;99983.28;;;23.98;38.12
2681;BME280;1350;42.134;24.708;2022-10-22T12:23:40;99982.00;;;24.28;38.09
2681;BME280;1350;42.134;24.708;2022-10-22T12:26:22;99984.75;;;24.79;37.24
2681;BME280;1350;42.134;24.708;2022-10-22T12:28:49;99979.06;;;24.64;36.95
2681;BME280;1350;42.134;24.708;2022-10-22T12:31:16;99970.19;;;23.67;38.33
2681;BME280;1350;42.134;24.708;2022-10-22T12:33:43;99968.47;;;22.94;39.19
2681;BME280;1350;42.134;24.708;2022-10-22T12:36:14;99972.97;;;23.03;39.16
2681;BME280;1350;42.134;24.708;2022-10-22T12:38:45;99974.16;;;23.27;39.26
2681;BME280;1350;42.134;24.708;2022-10-22T12:41:12;99958.69;;;23.10;39.14
2681;BME280;1350;42.134;24.708;2022-10-22T12:43:39;99947.72;;;23.12;39.23
2681;BME280;1350;42.134;24.708;2022-10-22T12:46:10;99948.47;;;23.04;39.09
2681;BME280;1350;42.134;24.708;2022-10-22T12:48:40;99944.72;;;23.42;39.01
2681;BME280;1350;42.134;24.708;2022-10-22T12:51:10;99939.28;;;23.69;39.09
2681;BME280;1350;42.134;24.708;2022-10-22T12:53:45;99940.19;;;23.60;38.61
2681;BME280;1350;42.134;24.708;2022-10-22T12:56:14;99933.69;;;23.53;38.83
2681;BME280;1350;42.134;24.708;2022-10-22T12:58:43;99945.59;;;23.43;38.48
2681;BME280;1350;42.134;24.708;2022-10-22T13:01:12;99938.47;;;23.59;38.85
2681;BME280;1350;42.134;24.708;2022-10-22T13:03:42;99934.47;;;23.63;39.35
2681;BME280;1350;42.134;24.708;2022-10-22T13:06:22;99941.72;;;23.80;38.49
2681;BME280;1350;42.134;24.708;2022-10-22T13:09:06;99937.56;;;23.86;39.11
2681;BME280;1350;42.134;24.708;2022-10-22T13:11:38;99935.91;;;23.93;38.45
2681;BME280;1350;42.134;24.708;2022-10-22T13:14:18;99934.94;;;23.94;39.05
2681;BME280;1350;42.134;24.708;2022-10-22T13:17:04;99927.25;;;23.54;38.92
2681;BME280;1350;42.134;24.708;2022-10-22T13:19:41;99926.97;;;23.75;38.81